createdAt,value
2023-04-10T00:00:57.265Z,102167.75
2023-04-10T00:03:27.097Z,102163.25
2023-04-10T00:05:56.027Z,102158.19
2023-04-10T00:08:24.647Z,102138.03
2023-04-10T00:10:54.431Z,102115.88
2023-04-10T00:13:24.496Z,102114.56
2023-04-10T00:15:52.969Z,102125.06
2023-04-10T00:18:21.279Z,102150.16
2023-04-10T00:20:49.627Z,102146.75
2023-04-10T00:23:18.019Z,102141.78
2023-04-10T00:25:48.257Z,102140.19
2023-04-10T00:28:17.299Z,102120.06
2023-04-10T00:30:46.978Z,102123.09
2023-04-10T00:33:15.422Z,102098.00
2023-04-10T00:35:43.818Z,102127.59
2023-04-10T00:38:12.165Z,102137.88
2023-04-10T00:40:40.903Z,102132.03
2023-04-10T00:43:09.248Z,102133.53
2023-04-10T00:45:37.908Z,102108.50
2023-04-10T00:48:08.859Z,102134.31
2023-04-10T00:50:37.911Z,102130.59
2023-04-10T00:53:06.430Z,102104.16
2023-04-10T00:55:34.865Z,102120.31
2023-04-10T00:58:03.491Z,102100.88
2023-04-10T01:00:31.856Z,102097.75
2023-04-10T01:03:01.670Z,102117.91
2023-04-10T01:05:39.824Z,102114.38
2023-04-10T01:08:18.803Z,102109.31
2023-04-10T01:10:57.648Z,102092.81
2023-04-10T01:13:35.356Z,102081.44
2023-04-10T01:16:10.528Z,102089.91
2023-04-10T01:18:47.580Z,102109.44
2023-04-10T01:21:18.639Z,102104.31
2023-04-10T01:24:08.677Z,102100.03
2023-04-10T01:26:57.934Z,102092.44
2023-04-10T01:29:30.527Z,102055.41
2023-04-10T01:32:06.101Z,102039.13
2023-04-10T01:34:40.809Z,102070.50
2023-04-10T01:37:14.852Z,102033.34
2023-04-10T01:39:44.883Z,102078.03
2023-04-10T01:42:17.532Z,102069.72
2023-04-10T01:44:48.524Z,102061.44
2023-04-10T01:47:18.243Z,102067.28
2023-04-10T01:49:50.088Z,102074.03
2023-04-10T01:52:19.858Z,102072.16
2023-04-10T01:54:54.326Z,102071.41
2023-04-10T01:57:30.603Z,102066.94
2023-04-10T02:00:01.727Z,102068.16
2023-04-10T02:02:32.987Z,102068.28
2023-04-10T02:05:02.161Z,102052.72
2023-04-10T02:07:37.958Z,102064.22
2023-04-10T02:10:24.856Z,102064.31
2023-04-10T02:13:01.647Z,102002.59
2023-04-10T02:15:33.858Z,102034.81
2023-04-10T02:18:04.869Z,102052.09
2023-04-10T02:20:34.402Z,102013.72
2023-04-10T02:23:05.306Z,102051.41
2023-04-10T02:25:34.084Z,102055.78
2023-04-10T02:28:06.017Z,102005.88
2023-04-10T02:30:36.573Z,102022.09
2023-04-10T02:33:05.628Z,102011.38
2023-04-10T02:35:34.804Z,102058.16
2023-04-10T02:38:05.044Z,102029.03
2023-04-10T02:40:38.047Z,102008.94
2023-04-10T02:43:24.599Z,102055.41
2023-04-10T02:45:54.956Z,102030.81
2023-04-10T02:48:28.549Z,102047.94
2023-04-10T02:51:01.240Z,102033.28
2023-04-10T02:53:30.502Z,102063.19
2023-04-10T02:56:02.421Z,102057.03
2023-04-10T02:58:31.692Z,102053.13
2023-04-10T03:01:02.732Z,102019.72
2023-04-10T03:03:48.405Z,102057.00
2023-04-10T03:06:27.289Z,102063.25
2023-04-10T03:08:57.249Z,102047.47
2023-04-10T03:11:25.604Z,102060.94
2023-04-10T03:13:54.428Z,102058.41
2023-04-10T03:16:24.616Z,102056.50
2023-04-10T03:18:53.665Z,102033.94
2023-04-10T03:21:22.455Z,101995.00
2023-04-10T03:23:51.337Z,102046.97
2023-04-10T03:26:19.796Z,102039.38
2023-04-10T03:28:48.182Z,102045.50
2023-04-10T03:31:16.680Z,102010.47
2023-04-10T03:33:47.621Z,102031.06
2023-04-10T03:36:16.178Z,102029.47
2023-04-10T03:38:44.938Z,102034.47
2023-04-10T03:41:13.280Z,102032.75
2023-04-10T03:43:42.723Z,102009.00
2023-04-10T03:46:11.395Z,102024.72
2023-04-10T03:48:43.803Z,102021.00
2023-04-10T03:51:13.656Z,102020.88
2023-04-10T03:53:42.296Z,102015.06
2023-04-10T03:56:15.439Z,102010.59
2023-04-10T03:58:43.982Z,102009.41
2023-04-10T04:01:13.642Z,102002.50
2023-04-10T04:04:02.711Z,101918.47
2023-04-10T04:06:50.914Z,101995.00
2023-04-10T04:09:21.899Z,101955.00
2023-04-10T04:12:08.815Z,101950.44
2023-04-10T04:14:37.628Z,101982.72
2023-04-10T04:17:38.156Z,101960.28
2023-04-10T04:20:10.843Z,101975.94
2023-04-10T04:23:00.604Z,101941.34
2023-04-10T04:25:43.790Z,101981.06
2023-04-10T04:28:30.658Z,101981.53
2023-04-10T04:31:16.258Z,101983.22
2023-04-10T04:33:50.211Z,101969.00
2023-04-10T04:36:44.314Z,101910.63
2023-04-10T04:39:37.296Z,101973.94
2023-04-10T04:42:34.194Z,101975.03
2023-04-10T04:45:16.503Z,101915.44
2023-04-10T04:48:01.894Z,101963.25
2023-04-10T04:50:48.847Z,101964.31
2023-04-10T04:53:39.880Z,101940.56
2023-04-10T04:56:28.221Z,101964.19
2023-04-10T04:59:28.524Z,101960.78
2023-04-10T05:02:14.834Z,101953.97
2023-04-10T05:04:49.493Z,101945.44
2023-04-10T05:07:25.865Z,101965.09
2023-04-10T05:09:59.208Z,101916.66
2023-04-10T05:12:52.254Z,101945.44
2023-04-10T05:15:43.581Z,101955.84
2023-04-10T05:18:30.778Z,101955.25
2023-04-10T05:21:22.030Z,101944.28
2023-04-10T05:24:07.078Z,101932.91
2023-04-10T05:27:01.370Z,101943.47
2023-04-10T05:29:54.144Z,101945.88
2023-04-10T05:32:42.761Z,101947.69
2023-04-10T05:35:37.438Z,101951.06
2023-04-10T05:38:43.992Z,101953.03
2023-04-10T05:41:26.605Z,101932.09
2023-04-10T05:44:21.014Z,101953.38
2023-04-10T05:46:59.283Z,101956.78
2023-04-10T05:49:44.948Z,101956.16
2023-04-10T05:52:27.648Z,101932.59
2023-04-10T05:55:14.209Z,101950.97
2023-04-10T05:57:42.676Z,101954.09
2023-04-10T06:00:26.349Z,101952.66
2023-04-10T06:03:30.639Z,101914.44
2023-04-10T06:06:03.445Z,101948.16
2023-04-10T06:08:32.733Z,101933.75
2023-04-10T06:11:01.117Z,101932.38
2023-04-10T06:13:30.583Z,101907.72
2023-04-10T06:16:00.962Z,101930.72
2023-04-10T06:18:32.323Z,101925.97
2023-04-10T06:21:02.072Z,101922.09
2023-04-10T06:23:30.650Z,101920.03
2023-04-10T06:25:59.040Z,101920.97
2023-04-10T06:28:27.521Z,101904.44
2023-04-10T06:31:03.127Z,101872.66
2023-04-10T06:33:37.027Z,101898.38
2023-04-10T06:36:08.717Z,101896.66
2023-04-10T06:38:43.845Z,101853.19
2023-04-10T06:41:12.470Z,101826.34
2023-04-10T06:43:43.615Z,101880.41
2023-04-10T06:46:11.992Z,101855.69
2023-04-10T06:48:43.635Z,101868.16
2023-04-10T06:51:11.948Z,101879.13
2023-04-10T06:53:40.505Z,101846.47
2023-04-10T06:56:09.928Z,101864.09
2023-04-10T06:58:38.447Z,101863.59
2023-04-10T07:01:07.584Z,101857.16
2023-04-10T07:03:36.087Z,101820.28
2023-04-10T07:06:08.109Z,101851.53
2023-04-10T07:08:36.447Z,101840.88
2023-04-10T07:11:04.829Z,101838.06
2023-04-10T07:13:33.473Z,101832.06
2023-04-10T07:16:02.107Z,101818.38
2023-04-10T07:18:30.583Z,101806.03
2023-04-10T07:20:58.912Z,101823.59
2023-04-10T07:23:28.722Z,101816.84
2023-04-10T07:25:58.286Z,101814.50
2023-04-10T07:28:26.604Z,101818.59
2023-04-10T07:30:54.920Z,101801.91
2023-04-10T07:33:23.306Z,101807.28
2023-04-10T07:35:51.995Z,101808.50
2023-04-10T07:38:21.249Z,101796.16
2023-04-10T07:40:51.148Z,101796.06
2023-04-10T07:43:19.537Z,101785.59
2023-04-10T07:45:48.122Z,101783.09
2023-04-10T07:48:16.753Z,101785.00
2023-04-10T07:50:45.066Z,101755.81
2023-04-10T07:53:13.478Z,101753.25
2023-04-10T07:55:44.006Z,101779.63
2023-04-10T07:58:13.679Z,101771.13
2023-04-10T08:00:42.416Z,101774.50
2023-04-10T08:03:11.037Z,101774.97
2023-04-10T08:05:40.100Z,101736.91
2023-04-10T08:08:08.635Z,101759.72
2023-04-10T08:10:38.755Z,101755.13
2023-04-10T08:13:07.313Z,101753.97
2023-04-10T08:15:37.272Z,101716.44
2023-04-10T08:18:05.736Z,101756.75
2023-04-10T08:20:37.072Z,101708.75
2023-04-10T08:25:43.964Z,101744.56
2023-04-10T08:28:12.325Z,101737.19
2023-04-10T08:30:43.506Z,101675.03
2023-04-10T08:33:11.880Z,101698.91
2023-04-10T08:35:41.113Z,101695.75
2023-04-10T08:38:14.293Z,101730.66
2023-04-10T08:40:47.021Z,101721.09
2023-04-10T08:43:15.532Z,101730.50
2023-04-10T08:45:45.934Z,101730.00
2023-04-10T08:48:15.753Z,101729.00
2023-04-10T08:50:46.543Z,101723.97
2023-04-10T08:53:16.574Z,101693.69
2023-04-10T08:55:46.840Z,101718.72
2023-04-10T08:58:15.854Z,101686.50
2023-04-10T09:00:45.759Z,101686.13
2023-04-10T09:03:15.123Z,101697.06
2023-04-10T09:05:43.807Z,101707.72
2023-04-10T09:08:12.287Z,101704.13
2023-04-10T09:10:40.752Z,101684.69
2023-04-10T09:13:09.292Z,101675.94
2023-04-10T09:16:00.363Z,101658.56
2023-04-10T09:18:44.525Z,101657.28
2023-04-10T09:21:15.873Z,101655.16
2023-04-10T09:23:45.835Z,101642.06
2023-04-10T09:26:25.609Z,101652.81
2023-04-10T09:29:02.475Z,101670.16
2023-04-10T09:31:35.881Z,101641.53
2023-04-10T09:34:14.194Z,101670.81
2023-04-10T09:36:43.905Z,101661.63
2023-04-10T09:39:13.687Z,101635.97
2023-04-10T09:41:54.914Z,101661.47
2023-04-10T09:44:31.851Z,101657.97
2023-04-10T09:47:17.788Z,101632.00
2023-04-10T09:49:52.375Z,101624.84
2023-04-10T09:52:22.863Z,101606.91
2023-04-10T09:54:51.548Z,101634.53
2023-04-10T09:57:21.873Z,101604.75
2023-04-10T09:59:53.640Z,101576.75
2023-04-10T10:02:25.214Z,101591.91
2023-04-10T10:04:54.797Z,101607.47
2023-04-10T10:07:25.046Z,101615.88
2023-04-10T10:09:54.575Z,101617.28
2023-04-10T10:12:27.661Z,101596.25
2023-04-10T10:15:08.133Z,101609.75
2023-04-10T10:17:44.032Z,101605.63
2023-04-10T10:20:14.538Z,101603.44
2023-04-10T10:22:43.421Z,101557.28
2023-04-10T10:25:13.920Z,101599.31
2023-04-10T10:27:44.356Z,101586.09
2023-04-10T10:30:25.684Z,101578.69
2023-04-10T10:33:00.959Z,101551.44
2023-04-10T10:35:31.848Z,101551.34
2023-04-10T10:38:01.648Z,101574.56
2023-04-10T10:40:33.697Z,101568.06
2023-04-10T10:43:16.170Z,101567.78
2023-04-10T10:45:53.631Z,101544.53
2023-04-10T10:48:23.605Z,101566.75
2023-04-10T10:50:57.103Z,101556.09
2023-04-10T10:53:40.745Z,101540.94
2023-04-10T10:56:37.717Z,101530.31
2023-04-10T10:59:06.201Z,101524.00
2023-04-10T11:01:34.653Z,101520.25
2023-04-10T11:04:45.849Z,101518.00
2023-04-10T11:07:14.946Z,101500.59
2023-04-10T11:09:52.372Z,101478.56
2023-04-10T11:12:23.488Z,101497.06
2023-04-10T11:15:00.651Z,101454.91
2023-04-10T11:17:48.801Z,101480.47
2023-04-10T11:20:20.931Z,101469.13
2023-04-10T11:23:14.296Z,101456.00
2023-04-10T11:25:51.964Z,101478.31
2023-04-10T11:28:39.890Z,101442.09
2023-04-10T11:31:23.158Z,101441.09
2023-04-10T11:34:03.305Z,101414.16
2023-04-10T11:36:33.828Z,101467.97
2023-04-10T11:39:05.823Z,101458.56
2023-04-10T11:41:36.661Z,101386.78
2023-04-10T11:44:07.982Z,101429.34
2023-04-10T11:46:39.658Z,101429.78
2023-04-10T11:49:11.000Z,101438.13
2023-04-10T11:51:41.937Z,101418.47
2023-04-10T11:54:12.103Z,101396.06
2023-04-10T11:56:42.715Z,101406.44
2023-04-10T11:59:13.595Z,101384.88
2023-04-10T12:01:43.384Z,101372.78
2023-04-10T12:04:17.187Z,101345.88
2023-04-10T12:06:48.950Z,101406.09
2023-04-10T12:09:19.022Z,101394.72
2023-04-10T12:11:53.164Z,101370.13
2023-04-10T12:14:22.831Z,101372.53
2023-04-10T12:16:52.830Z,101397.28
2023-04-10T12:19:23.583Z,101347.97
2023-04-10T12:21:53.761Z,101381.34
2023-04-10T12:24:45.392Z,101372.44
2023-04-10T12:27:21.147Z,101342.22
2023-04-10T12:29:52.317Z,101380.31
2023-04-10T12:32:22.309Z,101372.53
2023-04-10T12:34:57.191Z,101348.91
2023-04-10T12:37:47.568Z,101323.31
2023-04-10T12:40:16.684Z,101354.44
2023-04-10T12:42:45.710Z,101323.00
2023-04-10T12:45:15.285Z,101337.81
2023-04-10T12:47:49.626Z,101359.34
2023-04-10T12:50:20.825Z,101325.38
2023-04-10T12:53:07.583Z,101340.38
2023-04-10T12:55:36.240Z,101328.53
2023-04-10T12:58:18.542Z,101347.44
2023-04-10T13:00:47.023Z,101335.75
2023-04-10T13:03:15.803Z,101324.31
2023-04-10T13:05:46.120Z,101308.03
2023-04-10T13:08:16.400Z,101332.03
2023-04-10T13:10:44.842Z,101326.19
2023-04-10T13:13:13.502Z,101328.50
2023-04-10T13:15:42.913Z,101321.16
2023-04-10T13:18:11.731Z,101316.88
2023-04-10T13:20:41.833Z,101288.47
2023-04-10T13:23:10.419Z,101272.06
2023-04-10T13:25:42.996Z,101271.06
2023-04-10T13:28:11.648Z,101283.78
2023-04-10T13:30:42.918Z,101239.03
2023-04-10T13:33:11.537Z,101260.28
2023-04-10T13:35:41.295Z,101234.69
2023-04-10T13:38:11.765Z,101248.03
2023-04-10T13:40:42.063Z,101239.06
2023-04-10T13:43:10.445Z,101228.59
2023-04-10T13:45:38.979Z,101199.19
2023-04-10T13:48:08.255Z,101223.81
2023-04-10T13:50:36.829Z,101203.94
2023-04-10T13:53:05.379Z,101213.34
2023-04-10T13:55:36.473Z,101237.38
2023-04-10T13:58:07.125Z,101234.53
2023-04-10T14:00:35.960Z,101239.41
2023-04-10T14:03:04.568Z,101246.38
2023-04-10T14:05:33.163Z,101241.06
2023-04-10T14:08:01.535Z,101267.91
2023-04-10T14:10:29.946Z,101268.44
2023-04-10T14:12:58.501Z,101229.75
2023-04-10T14:15:28.217Z,101273.84
2023-04-10T14:17:56.647Z,101249.72
2023-04-10T14:20:25.361Z,101254.56
2023-04-10T14:22:53.670Z,101249.13
2023-04-10T14:25:22.138Z,101220.09
2023-04-10T14:27:50.519Z,101216.81
2023-04-10T14:30:18.841Z,101222.50
2023-04-10T14:32:48.959Z,101206.41
2023-04-10T14:35:17.332Z,101196.06
2023-04-10T14:37:45.690Z,101187.72
2023-04-10T14:40:14.178Z,101181.88
2023-04-10T14:42:42.642Z,101166.97
2023-04-10T14:45:12.121Z,101170.66
2023-04-10T14:47:42.722Z,101163.09
2023-04-10T14:50:13.498Z,101151.91
2023-04-10T14:52:42.258Z,101166.50
2023-04-10T14:55:11.831Z,101143.75
2023-04-10T14:57:40.575Z,101161.97
2023-04-10T15:00:10.911Z,101128.00
2023-04-10T15:02:39.775Z,101156.88
2023-04-10T15:05:09.257Z,101157.81
2023-04-10T15:07:39.477Z,101157.13
2023-04-10T15:10:10.657Z,101111.38
2023-04-10T15:12:39.750Z,101159.25
2023-04-10T15:15:09.793Z,101142.88
2023-04-10T15:17:38.443Z,101116.44
2023-04-10T15:20:08.104Z,101160.66
2023-04-10T15:22:38.042Z,101162.81
2023-04-10T15:25:07.301Z,101158.91
2023-04-10T15:27:35.690Z,101154.22
2023-04-10T15:30:05.273Z,101129.78
2023-04-10T15:32:33.627Z,101181.69
2023-04-10T15:35:01.974Z,101185.72
2023-04-10T15:37:30.288Z,101190.88
2023-04-10T15:40:00.262Z,101175.59
2023-04-10T15:42:29.090Z,101163.97
2023-04-10T15:44:57.431Z,101176.91
2023-04-10T15:47:26.031Z,101176.78
2023-04-10T15:49:54.510Z,101135.72
2023-04-10T15:52:22.862Z,101173.88
2023-04-10T15:54:52.792Z,101159.78
2023-04-10T15:57:22.649Z,101156.09
2023-04-10T15:59:53.456Z,101160.97
2023-04-10T16:02:21.903Z,101167.69
2023-04-10T16:04:50.737Z,101163.16
2023-04-10T16:07:19.610Z,101133.44
2023-04-10T16:09:48.117Z,101159.31
2023-04-10T16:12:16.835Z,101160.69
2023-04-10T16:14:46.546Z,101153.44
2023-04-10T16:17:15.069Z,101145.53
2023-04-10T16:19:43.357Z,101121.19
2023-04-10T16:22:12.160Z,101138.06
2023-04-10T16:24:40.789Z,101151.03
2023-04-10T16:27:09.270Z,101151.31
2023-04-10T16:29:37.621Z,101148.00
2023-04-10T16:32:07.479Z,101155.84
2023-04-10T16:34:36.328Z,101143.47
2023-04-10T16:37:04.676Z,101154.19
2023-04-10T16:39:33.010Z,101120.97
2023-04-10T16:42:03.492Z,101154.72
2023-04-10T16:44:32.028Z,101119.59
2023-04-10T16:47:00.620Z,101110.88
2023-04-10T16:49:30.764Z,101154.56
2023-04-10T16:51:59.172Z,101147.03
2023-04-10T16:54:27.634Z,101147.19
2023-04-10T16:56:57.051Z,101151.63
2023-04-10T16:59:25.570Z,101143.72
2023-04-10T17:01:53.990Z,101143.72
2023-04-10T17:04:22.686Z,101141.75
2023-04-10T17:06:52.967Z,101125.03
2023-04-10T17:09:21.784Z,101140.47
2023-04-10T17:11:53.073Z,101135.91
2023-04-10T17:14:21.776Z,101105.38
2023-04-10T17:16:50.397Z,101092.75
2023-04-10T17:19:19.048Z,101054.28
2023-04-10T17:21:47.481Z,101132.19
2023-04-10T17:24:17.473Z,101119.94
2023-04-10T17:26:46.067Z,101121.19
2023-04-10T17:29:14.591Z,101096.97
2023-04-10T17:31:43.110Z,101052.19
2023-04-10T17:34:11.629Z,101060.69
2023-04-10T17:36:39.936Z,101062.53
2023-04-10T17:39:08.848Z,101050.53
2023-04-10T17:41:38.748Z,101050.00
2023-04-10T17:44:07.131Z,101032.63
2023-04-10T17:46:35.494Z,101030.31
2023-04-10T17:49:04.557Z,101013.41
2023-04-10T17:51:33.461Z,100966.44
2023-04-10T17:54:01.914Z,101027.75
2023-04-10T17:56:30.525Z,101007.22
2023-04-10T17:59:00.621Z,101023.34
2023-04-10T18:01:31.137Z,101019.38
2023-04-10T18:04:00.429Z,100982.22
2023-04-10T18:06:29.010Z,100993.72
2023-04-10T18:08:57.901Z,101035.16
2023-04-10T18:11:26.462Z,101069.69
2023-04-10T18:13:55.035Z,101059.19
2023-04-10T18:16:25.077Z,101004.88
2023-04-10T18:18:53.921Z,101029.00
2023-04-10T18:21:22.954Z,101019.06
2023-04-10T18:23:51.271Z,101031.69
2023-04-10T18:26:20.990Z,101032.63
2023-04-10T18:28:49.518Z,101021.06
2023-04-10T18:31:19.082Z,101031.84
2023-04-10T18:34:00.206Z,101027.06
2023-04-10T18:36:35.877Z,101020.94
2023-04-10T18:39:04.755Z,100999.91
2023-04-10T18:41:33.838Z,101013.88
2023-04-10T18:44:05.490Z,101029.53
2023-04-10T18:46:34.647Z,101018.44
2023-04-10T18:49:04.435Z,101029.81
2023-04-10T18:51:35.389Z,100992.22
2023-04-10T18:54:04.185Z,101015.97
2023-04-10T18:56:32.723Z,101029.19
2023-04-10T18:59:01.082Z,101067.28
2023-04-10T19:01:29.530Z,101021.44
2023-04-10T19:03:58.361Z,100999.84
2023-04-10T19:06:28.718Z,100994.84
2023-04-10T19:08:56.997Z,100981.16
2023-04-10T19:11:25.535Z,101006.28
2023-04-10T19:13:54.181Z,101005.91
2023-04-10T19:16:23.356Z,101009.53
2023-04-10T19:18:51.926Z,100987.66
2023-04-10T19:21:20.609Z,101019.69
2023-04-10T19:23:50.418Z,101009.44
2023-04-10T19:26:20.130Z,100982.75
2023-04-10T19:28:48.644Z,100994.56
2023-04-10T19:31:17.052Z,101009.81
2023-04-10T19:33:45.432Z,101016.22
2023-04-10T19:36:13.960Z,100933.47
2023-04-10T19:38:48.640Z,101007.25
2023-04-10T19:41:19.111Z,101005.06
2023-04-10T19:43:47.572Z,100987.91
2023-04-10T19:46:19.474Z,101016.88
2023-04-10T19:48:48.840Z,101010.78
2023-04-10T19:51:17.418Z,101014.75
2023-04-10T19:53:45.920Z,101025.63
2023-04-10T19:56:16.132Z,100980.84
2023-04-10T19:58:47.000Z,100992.03
2023-04-10T20:01:15.630Z,100998.75
2023-04-10T20:03:44.317Z,100977.13
2023-04-10T20:06:13.070Z,100989.84
2023-04-10T20:08:41.995Z,101000.19
2023-04-10T20:11:10.509Z,100980.63
2023-04-10T20:13:40.288Z,100991.13
2023-04-10T20:16:10.858Z,100995.94
2023-04-10T20:18:41.244Z,100984.03
2023-04-10T20:21:09.707Z,100992.00
2023-04-10T20:23:39.637Z,100940.22
2023-04-10T20:26:08.632Z,100981.75
2023-04-10T20:28:37.291Z,100986.84
2023-04-10T20:31:05.922Z,100947.44
2023-04-10T20:33:35.837Z,100984.69
2023-04-10T20:36:05.013Z,100970.53
2023-04-10T20:38:33.547Z,100982.06
2023-04-10T20:41:02.119Z,100988.94
2023-04-10T20:43:30.633Z,100962.34
2023-04-10T20:46:05.101Z,100975.53
2023-04-10T20:48:35.855Z,100959.16
2023-04-10T20:51:04.328Z,100972.56
2023-04-10T20:53:32.851Z,100969.47
2023-04-10T20:56:02.197Z,100961.81
2023-04-10T20:58:31.900Z,100945.00
2023-04-10T21:01:00.363Z,100961.31
2023-04-10T21:03:28.944Z,100968.00
2023-04-10T21:05:58.907Z,100983.97
2023-04-10T21:08:27.297Z,100959.59
2023-04-10T21:10:58.737Z,100972.88
2023-04-10T21:13:27.583Z,100984.72
2023-04-10T21:15:55.955Z,100976.47
2023-04-10T21:18:24.342Z,100983.47
2023-04-10T21:20:52.683Z,100982.50
2023-04-10T21:23:22.368Z,100971.72
2023-04-10T21:25:53.188Z,100962.66
2023-04-10T21:28:21.877Z,100951.88
2023-04-10T21:30:50.235Z,100983.91
2023-04-10T21:33:18.643Z,100988.41
2023-04-10T21:35:47.142Z,100960.69
2023-04-10T21:38:15.859Z,100994.22
2023-04-10T21:40:52.140Z,100959.34
2023-04-10T21:43:21.136Z,100988.34
2023-04-10T21:45:49.586Z,100996.97
2023-04-10T21:48:19.558Z,100997.88
2023-04-10T21:50:48.628Z,100942.22
2023-04-10T21:53:17.013Z,100966.03
2023-04-10T21:55:46.684Z,100959.59
2023-04-10T21:58:15.015Z,100974.06
2023-04-10T22:00:47.064Z,100978.78
2023-04-10T22:03:17.120Z,100980.31
2023-04-10T22:05:45.968Z,100975.88
2023-04-10T22:08:14.993Z,100965.44
2023-04-10T22:10:45.452Z,100988.47
2023-04-10T22:13:27.566Z,100955.34
2023-04-10T22:15:59.192Z,100993.38
2023-04-10T22:18:27.568Z,100996.88
2023-04-10T22:20:56.087Z,100989.56
2023-04-10T22:23:24.566Z,100957.63
2023-04-10T22:25:52.950Z,100996.63
2023-04-10T22:28:23.349Z,100962.81
2023-04-10T22:30:51.753Z,100998.00
2023-04-10T22:33:20.115Z,100991.16
2023-04-10T22:35:48.467Z,100994.94
2023-04-10T22:38:16.974Z,100992.34
2023-04-10T22:40:45.320Z,100966.13
2023-04-10T22:43:13.899Z,100997.94
2023-04-10T22:45:43.916Z,100973.84
2023-04-10T22:48:12.363Z,100958.69
2023-04-10T22:50:41.035Z,100966.31
2023-04-10T22:53:11.667Z,100995.78
2023-04-10T22:55:40.912Z,100986.97
2023-04-10T22:58:09.267Z,100966.78
2023-04-10T23:00:37.813Z,101004.97
2023-04-10T23:03:07.708Z,100989.38
2023-04-10T23:05:36.146Z,100999.91
2023-04-10T23:08:04.660Z,101001.84
2023-04-10T23:10:33.060Z,101008.59
2023-04-10T23:13:01.810Z,101002.88
2023-04-10T23:15:30.290Z,101004.03
2023-04-10T23:17:58.639Z,101016.19
2023-04-10T23:20:28.458Z,101015.88
2023-04-10T23:22:57.193Z,100994.00
2023-04-10T23:25:25.799Z,101022.00
2023-04-10T23:27:54.214Z,100996.00
2023-04-10T23:30:22.634Z,101014.47
2023-04-10T23:32:51.096Z,101015.50
2023-04-10T23:35:19.568Z,101019.44
2023-04-10T23:37:51.126Z,100996.13
2023-04-10T23:40:20.530Z,100977.13
2023-04-10T23:42:49.034Z,101023.69
2023-04-10T23:45:17.453Z,101022.56
2023-04-10T23:47:45.843Z,101022.31
2023-04-10T23:50:14.284Z,101004.56
2023-04-10T23:52:42.660Z,101022.63
2023-04-10T23:55:12.456Z,101028.06
2023-04-10T23:57:41.300Z,101008.22
